Time;durP1;ratioP1;P1;durP2;ratioP2;P2;SDS_P1;SDS_P2;PMS_P1;PMS_P2;Temp;Humidity;BMP_temperature;BMP_pressure;BME280_temperature;BME280_humidity;BME280_pressure;Samples;Min_cycle;Max_cycle;Signal;HPM_P1;HPM_P2
2021/10/17 00:00:35;;;;;;;22.20;12.78;;;;;;;6.79;77.57;99952.34;1734722;80;20761;-62
2021/10/17 00:03:02;;;;;;;19.23;13.93;;;;;;;6.76;77.56;99950.66;1740397;80;20979;-62
2021/10/17 00:05:32;;;;;;;18.90;12.93;;;;;;;6.71;77.55;99948.59;1734572;80;20950;-62
2021/10/17 00:07:59;;;;;;;15.65;11.70;;;;;;;6.66;77.58;99947.82;1734697;81;21424;-62
2021/10/17 00:10:30;;;;;;;20.65;12.63;;;;;;;6.76;77.42;99951.97;1736180;80;21538;-63
2021/10/17 00:12:58;;;;;;;23.15;13.62;;;;;;;6.79;77.24;99949.27;1734159;80;21558;-61
2021/10/17 00:15:25;;;;;;;22.70;14.10;;;;;;;6.76;77.22;99952.39;1744564;80;22062;-62
2021/10/17 00:17:52;;;;;;;20.72;14.45;;;;;;;6.73;77.32;99948.10;1731542;80;21553;-62
2021/10/17 00:20:20;;;;;;;21.80;13.55;;;;;;;6.68;77.30;99947.79;1746816;80;21511;-61
2021/10/17 00:22:48;;;;;;;17.05;12.80;;;;;;;6.69;77.20;99948.22;1737406;80;21565;-61
2021/10/17 00:25:15;;;;;;;22.00;13.22;;;;;;;6.73;77.03;99945.95;1737697;80;21869;-62
2021/10/17 00:27:42;;;;;;;23.25;13.93;;;;;;;6.67;76.91;99943.02;1734867;81;21465;-62
2021/10/17 00:30:11;;;;;;;20.15;13.32;;;;;;;6.58;76.85;99940.16;1733494;80;21441;-62
2021/10/17 00:32:39;;;;;;;21.30;13.58;;;;;;;6.50;76.86;99946.42;1733859;80;21496;-61
2021/10/17 00:35:07;;;;;;;18.67;13.67;;;;;;;6.43;76.82;99948.32;1717192;81;21440;-61
2021/10/17 00:37:35;;;;;;;19.42;13.50;;;;;;;6.37;77.45;99946.70;1730749;81;21754;-61
2021/10/17 00:40:07;;;;;;;19.02;12.98;;;;;;;6.42;77.06;99939.63;1716369;81;21529;-62
2021/10/17 00:42:34;;;;;;;20.23;13.28;;;;;;;6.38;76.90;99941.87;1726819;81;21440;-62
2021/10/17 00:45:04;;;;;;;21.65;13.80;;;;;;;6.32;76.95;99945.07;1716413;81;21600;-62
2021/10/17 00:47:32;;;;;;;21.17;13.40;;;;;;;6.24;76.87;99947.39;1723776;81;21538;-61
2021/10/17 00:49:58;;;;;;;17.62;12.73;;;;;;;6.20;76.92;99944.88;1713884;81;22193;-60
2021/10/17 00:52:25;;;;;;;21.23;12.93;;;;;;;6.23;76.81;99940.46;1724947;81;21819;-60
2021/10/17 00:54:52;;;;;;;20.17;13.10;;;;;;;6.26;76.66;99940.83;1729875;81;21617;-61
2021/10/17 00:57:19;;;;;;;19.60;13.08;;;;;;;6.20;76.64;99943.13;1716954;81;21886;-62
2021/10/17 00:59:47;;;;;;;18.17;12.95;;;;;;;6.11;76.47;99945.06;1728547;81;21519;-62
2021/10/17 01:02:14;;;;;;;18.10;12.98;;;;;;;6.01;76.37;99943.94;1717805;82;21857;-62
2021/10/17 01:04:41;;;;;;;19.75;11.40;;;;;;;5.92;76.30;99944.53;1732647;81;20952;-62
2021/10/17 01:07:08;;;;;;;17.80;11.93;;;;;;;5.90;76.38;99941.94;1729812;81;21061;-62
2021/10/17 01:09:36;;;;;;;16.35;11.57;;;;;;;5.95;76.19;99937.53;1727998;81;21594;-62
2021/10/17 01:12:04;;;;;;;15.23;11.45;;;;;;;5.90;76.09;99941.94;1729936;81;21026;-62
2021/10/17 01:14:32;;;;;;;17.10;11.60;;;;;;;5.81;76.12;99941.66;1718495;81;21511;-62
2021/10/17 01:16:59;;;;;;;18.12;12.53;;;;;;;5.75;75.96;99945.69;1728602;82;21503;-62
2021/10/17 01:19:25;;;;;;;18.02;12.33;;;;;;;5.68;75.98;99951.91;1729209;81;21559;-61
2021/10/17 01:21:54;;;;;;;14.93;11.12;;;;;;;5.65;76.48;99948.03;1729438;82;21436;-62
2021/10/17 01:24:22;;;;;;;14.05;10.58;;;;;;;5.73;76.38;99949.23;1724023;81;21566;-62
2021/10/17 01:26:50;;;;;;;15.00;11.43;;;;;;;5.69;76.18;99941.02;1728887;80;21464;-62
2021/10/17 01:29:16;;;;;;;18.37;12.20;;;;;;;5.62;76.23;99950.27;1719203;81;21843;-62
2021/10/17 01:31:51;;;;;;;15.48;10.82;;;;;;;5.58;76.32;99938.62;1740385;80;21556;-62
2021/10/17 01:34:19;;;;;;;14.03;10.35;;;;;;;5.53;76.13;99942.59;1739249;80;21514;-62
2021/10/17 01:36:45;;;;;;;15.03;9.68;;;;;;;5.53;76.40;99937.83;1733535;80;21553;-62
2021/10/17 01:39:15;;;;;;;13.78;9.85;;;;;;;5.60;76.89;99947.27;1744293;80;21805;-62
2021/10/17 01:41:42;;;;;;;14.98;10.15;;;;;;;5.64;76.80;99947.63;1741439;80;21615;-63
2021/10/17 01:44:16;;;;;;;15.03;10.63;;;;;;;5.61;77.31;99949.86;1736965;80;20942;-62
2021/10/17 01:46:44;;;;;;;16.15;9.90;;;;;;;5.59;76.84;99942.94;1737473;80;21563;-62
2021/10/17 01:49:14;;;;;;;13.32;9.60;;;;;;;5.51;77.57;99947.44;1729191;80;21474;-62
2021/10/17 01:51:41;;;;;;;14.70;9.50;;;;;;;5.53;77.14;99945.66;1710093;82;21441;-60
2021/10/17 01:54:08;;;;;;;16.55;9.53;;;;;;;5.64;76.94;99949.79;1699945;83;21552;-61
2021/10/17 01:56:38;;;;;;;15.48;10.18;;;;;;;5.60;77.13;99948.58;1695672;83;21587;-62
2021/10/17 01:59:05;;;;;;;15.20;10.28;;;;;;;5.59;76.96;99951.61;1680595;83;21622;-62
2021/10/17 02:01:34;;;;;;;11.43;9.40;;;;;;;5.55;77.25;99950.40;1677542;84;21499;-61
2021/10/17 02:04:01;;;;;;;14.50;9.43;;;;;;;5.49;77.66;99950.06;1690334;83;21559;-61
2021/10/17 02:06:28;;;;;;;;;;;;;;;5.52;77.85;99956.96;1700406;83;21578;-61
2021/10/17 02:08:57;;;;;;;15.80;10.35;;;;;;;5.63;77.48;99958.94;1698841;83;20465;-62
2021/10/17 02:11:24;;;;;;;12.98;9.48;;;;;;;5.65;77.26;99955.86;1692816;83;21491;-61
2021/10/17 02:13:51;;;;;;;14.87;10.28;;;;;;;5.64;77.21;99957.62;1690243;83;21606;-62
2021/10/17 02:16:18;;;;;;;14.00;10.85;;;;;;;5.57;77.49;99952.53;1697304;83;21833;-62
2021/10/17 02:18:47;;;;;;;16.80;10.32;;;;;;;5.54;77.49;99959.09;1686344;83;21443;-62
2021/10/17 02:21:14;;;;;;;14.60;9.30;;;;;;;5.46;78.59;99961.42;1695783;82;21601;-62
2021/10/17 02:23:42;;;;;;;14.78;10.15;;;;;;;5.51;78.38;99953.95;1678912;82;21545;-62
2021/10/17 02:26:09;;;;;;;15.05;10.03;;;;;;;5.49;77.96;99959.64;1700533;82;21555;-62
2021/10/17 02:28:47;;;;;;;16.12;10.75;;;;;;;5.45;78.00;99958.38;1687191;83;21813;-63
2021/10/17 02:31:13;;;;;;;15.40;9.93;;;;;;;5.33;79.23;99959.91;1694028;83;21517;-62
2021/10/17 02:33:42;;;;;;;15.95;10.03;;;;;;;5.29;79.21;99967.78;1740912;80;21445;-62
2021/10/17 02:36:09;;;;;;;15.87;9.83;;;;;;;5.31;79.87;99962.09;1728312;82;21578;-62
2021/10/17 02:38:36;;;;;;;15.00;9.38;;;;;;;5.40;79.30;99963.25;1736552;80;21566;-62
2021/10/17 02:41:03;;;;;;;13.20;10.10;;;;;;;5.41;78.92;99959.77;1737218;80;21554;-62
2021/10/17 02:43:31;;;;;;;15.55;10.25;;;;;;;5.34;78.95;99961.61;1741562;81;21406;-62
2021/10/17 02:45:58;;;;;;;14.03;10.03;;;;;;;5.31;78.76;99959.03;1737164;80;20999;-61
2021/10/17 02:48:25;;;;;;;13.20;9.83;;;;;;;5.33;78.83;99963.81;1736531;80;21498;-62
2021/10/17 02:50:52;;;;;;;11.97;9.50;;;;;;;5.40;78.80;99961.50;1732226;80;21444;-62
2021/10/17 02:53:19;;;;;;;13.45;9.65;;;;;;;5.42;78.60;99962.33;1740791;80;21806;-62
2021/10/17 02:55:46;;;;;;;14.87;9.73;;;;;;;5.39;78.39;99963.70;1738171;80;21424;-63
2021/10/17 02:58:13;;;;;;;13.35;9.98;;;;;;;5.35;78.14;99963.34;1733265;80;21082;-62
2021/10/17 03:00:40;;;;;;;16.48;9.85;;;;;;;5.29;77.90;99964.72;1737950;80;21597;-62
2021/10/17 03:03:07;;;;;;;12.70;9.47;;;;;;;5.30;77.97;99965.16;1730604;80;21546;-62
2021/10/17 03:05:36;;;;;;;12.00;9.38;;;;;;;5.38;78.10;99963.27;1740907;80;22099;-62
2021/10/17 03:08:03;;;;;;;15.13;10.85;;;;;;;5.37;77.83;99961.98;1739114;80;21523;-62
2021/10/17 03:10:30;;;;;;;15.70;10.10;;;;;;;5.29;77.60;99971.23;1737040;80;21493;-62
2021/10/17 03:12:57;;;;;;;15.37;9.80;;;;;;;5.21;77.67;99969.21;1723368;80;21510;-62
2021/10/17 03:15:23;;;;;;;15.25;8.73;;;;;;;5.13;77.54;99966.72;1738856;80;21549;-62
2021/10/17 03:17:54;;;;;;;13.25;8.78;;;;;;;5.12;77.71;99973.26;1736061;80;21380;-63
2021/10/17 03:20:22;;;;;;;13.78;9.40;;;;;;;5.18;77.89;99967.94;1705105;83;20992;-62
2021/10/17 03:22:49;;;;;;;11.35;9.03;;;;;;;5.14;77.74;99976.28;1726582;80;21476;-62
2021/10/17 03:25:16;;;;;;;15.38;9.95;;;;;;;5.08;77.86;99975.05;1736972;80;21514;-61
2021/10/17 03:27:44;;;;;;;17.35;8.63;;;;;;;5.06;77.78;99980.28;1740697;80;21592;-62
2021/10/17 03:30:14;;;;;;;12.82;9.20;;;;;;;5.03;78.13;99979.04;1735844;81;21621;-63
2021/10/17 03:32:41;;;;;;;12.85;9.20;;;;;;;5.14;78.01;99974.09;1725305;80;21510;-61
2021/10/17 03:35:09;;;;;;;13.28;9.75;;;;;;;5.22;77.76;99977.46;1722976;80;21566;-63
2021/10/17 03:37:36;;;;;;;15.78;10.23;;;;;;;5.18;77.82;99980.97;1720136;82;21589;-62
2021/10/17 03:40:06;;;;;;;16.60;8.75;;;;;;;5.15;78.81;99974.52;1717274;81;21451;-61
2021/10/17 03:42:34;;;;;;;13.32;8.75;;;;;;;5.14;78.75;99972.79;1728421;80;21743;-62
2021/10/17 03:45:01;;;;;;;11.80;8.83;;;;;;;5.20;79.88;99976.17;1715349;81;21492;-61
2021/10/17 03:47:28;;;;;;;13.22;9.38;;;;;;;5.37;79.28;99981.13;1730714;81;21523;-60
2021/10/17 03:49:57;;;;;;;14.90;9.00;;;;;;;5.42;79.43;99976.67;1722783;81;21570;-60
2021/10/17 03:52:28;;;;;;;15.98;10.03;;;;;;;5.46;79.25;99973.16;1724114;81;21753;-61
2021/10/17 03:54:57;;;;;;;11.80;8.70;;;;;;;5.49;79.35;99972.68;1711534;82;21828;-61
2021/10/17 03:57:24;;;;;;;13.40;9.08;;;;;;;5.60;79.23;99975.97;1727147;81;21523;-64
2021/10/17 03:59:51;;;;;;;13.18;9.08;;;;;;;5.78;78.96;99971.74;1717919;81;21487;-62
2021/10/17 04:02:17;;;;;;;13.80;10.28;;;;;;;5.85;78.80;99978.55;1681654;83;21587;-62
2021/10/17 04:04:44;;;;;;;14.53;9.98;;;;;;;5.88;78.63;99971.55;1723180;81;21531;-62
2021/10/17 04:07:13;;;;;;;15.90;9.50;;;;;;;5.90;78.58;99977.63;1727815;81;21760;-62
2021/10/17 04:09:40;;;;;;;14.23;8.98;;;;;;;5.90;78.42;99979.78;1725066;81;21141;-62
2021/10/17 04:12:07;;;;;;;14.23;9.63;;;;;;;6.00;78.52;99978.74;1722569;82;21492;-62
2021/10/17 04:14:45;;;;;;;14.03;9.55;;;;;;;6.14;78.35;99975.00;1686662;82;21628;-62
2021/10/17 04:17:12;;;;;;;13.62;10.68;;;;;;;6.16;78.21;99979.33;1686368;83;21448;-63
2021/10/17 04:19:39;;;;;;;14.73;10.45;;;;;;;6.14;78.13;99979.80;1682194;83;21813;-64
2021/10/17 04:22:06;;;;;;;16.57;10.95;;;;;;;6.11;78.17;99985.08;1662931;84;21540;-63
2021/10/17 04:24:33;;;;;;;15.98;10.28;;;;;;;6.11;78.30;99979.85;1686691;84;21591;-63
2021/10/17 04:27:02;;;;;;;16.80;10.65;;;;;;;6.23;78.25;99980.05;1686173;82;21507;-64
2021/10/17 04:29:29;;;;;;;15.58;10.20;;;;;;;6.29;78.10;99981.27;1689619;82;21669;-64
2021/10/17 04:31:56;;;;;;;21.33;10.93;;;;;;;6.29;78.00;99981.68;1692179;83;21744;-62
2021/10/17 04:34:23;;;;;;;19.75;11.40;;;;;;;6.27;77.89;99984.77;1689236;82;21503;-64
2021/10/17 04:36:49;;;;;;;17.30;10.45;;;;;;;6.24;77.73;99983.95;1689049;82;21653;-64
2021/10/17 04:39:16;;;;;;;17.85;10.43;;;;;;;6.27;77.86;99981.70;1688136;82;21094;-65
2021/10/17 04:41:43;;;;;;;15.95;10.05;;;;;;;6.36;77.90;99986.75;1664236;84;21606;-64
2021/10/17 04:44:09;;;;;;;13.68;10.23;;;;;;;6.35;77.84;99989.42;1684575;83;21982;-63
2021/10/17 04:46:36;;;;;;;15.55;10.78;;;;;;;6.33;77.88;99986.83;1687598;83;21091;-63
2021/10/17 04:49:03;;;;;;;15.13;10.48;;;;;;;6.31;77.97;99989.92;1686276;82;21609;-63
2021/10/17 04:51:30;;;;;;;;;;;;;;;6.29;78.09;99983.88;1694829;82;21518;-63
2021/10/17 04:53:57;;;;;;;16.40;10.32;;;;;;;6.37;78.47;99991.55;1674564;84;20415;-63
2021/10/17 04:56:24;;;;;;;14.03;10.63;;;;;;;6.46;78.05;99992.67;1680363;83;21887;-62
2021/10/17 04:58:51;;;;;;;16.67;11.25;;;;;;;6.46;78.02;99988.75;1688625;82;21597;-63
2021/10/17 05:01:18;;;;;;;14.65;11.50;;;;;;;6.42;78.14;99990.56;1685548;82;21642;-63
2021/10/17 05:03:45;;;;;;;16.10;9.43;;;;;;;6.41;78.01;99991.45;1728301;81;21508;-63
2021/10/17 05:06:12;;;;;;;16.40;11.13;;;;;;;6.48;78.09;99995.23;1725454;81;21423;-63
2021/10/17 05:08:41;;;;;;;14.90;10.23;;;;;;;6.63;77.92;99998.86;1726159;81;21500;-62
2021/10/17 05:11:10;;;;;;;20.25;11.05;;;;;;;6.61;77.74;99998.88;1728763;81;21516;-63
2021/10/17 05:13:37;;;;;;;14.40;11.37;;;;;;;6.54;77.86;99996.44;1726311;81;21555;-63
2021/10/17 05:16:04;;;;;;;16.60;11.10;;;;;;;6.52;77.78;100002.14;1725363;81;21514;-63
2021/10/17 05:18:31;;;;;;;19.90;11.08;;;;;;;6.51;77.73;100002.56;1726506;81;21014;-63
2021/10/17 05:20:59;;;;;;;19.42;10.80;;;;;;;6.60;77.63;100004.14;1721965;81;22116;-63
2021/10/17 05:23:26;;;;;;;20.40;11.30;;;;;;;6.68;77.42;100001.36;1726624;80;21614;-63
2021/10/17 05:25:54;;;;;;;18.65;11.85;;;;;;;6.66;77.41;100003.15;1728114;82;21528;-62
2021/10/17 05:28:22;;;;;;;16.73;11.88;;;;;;;6.65;77.56;100005.33;1726055;80;21679;-64
2021/10/17 05:30:51;;;;;;;17.98;11.63;;;;;;;6.65;77.50;100010.13;1723470;81;20935;-62
2021/10/17 05:33:17;;;;;;;15.58;11.30;;;;;;;6.74;77.66;100009.95;1729842;80;22040;-62
2021/10/17 05:35:44;;;;;;;18.25;11.75;;;;;;;6.88;77.58;100003.56;1723925;82;21555;-62
2021/10/17 05:38:12;;;;;;;16.85;11.18;;;;;;;6.95;77.35;100004.69;1724215;81;21487;-62
2021/10/17 05:40:39;;;;;;;;;;;;;;;6.98;77.19;100012.45;1725759;81;21093;-62
2021/10/17 05:43:06;;;;;;;16.95;10.88;;;;;;;7.01;77.35;100012.84;1662889;84;20448;-64
2021/10/17 05:45:35;;;;;;;18.73;10.82;;;;;;;7.02;77.40;100018.02;1724835;81;22226;-62
2021/10/17 05:48:03;;;;;;;17.67;10.40;;;;;;;7.13;77.34;100016.48;1721478;81;21562;-63
2021/10/17 05:50:31;;;;;;;15.90;10.60;;;;;;;7.19;76.73;100012.86;1717452;81;21617;-63
2021/10/17 05:52:59;;;;;;;18.80;11.48;;;;;;;7.28;76.68;100019.19;1724827;81;21494;-61
2021/10/17 05:55:26;;;;;;;13.62;10.98;;;;;;;7.21;77.08;100024.14;1721541;81;21546;-63
2021/10/17 05:57:53;;;;;;;;;;;;;;;7.20;77.13;100022.44;1725080;81;22004;-62
2021/10/17 06:00:21;;;;;;;16.62;10.05;;;;;;;7.21;77.31;100026.33;1725287;82;20415;-62
2021/10/17 06:02:49;;;;;;;18.32;10.30;;;;;;;7.26;77.21;100026.21;1737689;80;21576;-63
2021/10/17 06:05:16;;;;;;;16.23;9.95;;;;;;;7.41;76.61;100032.84;1729136;81;21093;-63
2021/10/17 06:07:43;;;;;;;15.47;10.50;;;;;;;7.46;76.49;100028.38;1715786;81;21003;-62
2021/10/17 06:10:13;;;;;;;16.97;11.05;;;;;;;7.45;76.18;100028.41;1716853;81;21754;-63
2021/10/17 06:12:40;;;;;;;16.30;12.20;;;;;;;7.48;76.24;100028.31;1720349;81;21514;-63
2021/10/17 06:15:09;;;;;;;17.25;9.55;;;;;;;7.48;76.00;100029.20;1720261;80;21456;-63
2021/10/17 06:17:35;;;;;;;;;;;;;;;7.55;75.89;100035.12;1722980;81;21001;-62
2021/10/17 06:20:05;;;;;;;17.50;10.90;;;;;;;7.70;75.64;100033.89;1715864;80;20521;-61
2021/10/17 06:22:34;;;;;;;23.35;11.45;;;;;;;7.75;75.59;100038.11;1732994;80;21916;-55
2021/10/17 06:25:01;;;;;;;17.05;11.48;;;;;;;7.73;74.77;100031.21;1723610;81;21515;-57
2021/10/17 06:27:28;;;;;;;19.27;11.68;;;;;;;7.70;75.24;100036.51;1731176;81;21504;-57
2021/10/17 06:29:55;;;;;;;18.87;10.13;;;;;;;7.74;75.43;100034.22;1722486;81;21089;-58
2021/10/17 06:32:22;;;;;;;17.00;9.65;;;;;;;7.84;75.38;100038.34;1729324;80;21622;-57
2021/10/17 06:34:48;;;;;;;17.57;9.83;;;;;;;8.01;75.20;100033.98;1725588;81;21829;-57
2021/10/17 06:37:16;;;;;;;18.30;11.28;;;;;;;8.08;74.69;100035.98;1728346;82;21442;-58
2021/10/17 06:39:43;;;;;;;15.98;10.05;;;;;;;8.07;74.51;100042.98;1722959;81;21501;-57
2021/10/17 06:42:13;;;;;;;21.90;11.28;;;;;;;8.12;74.70;100040.27;1730822;81;21480;-58
2021/10/17 06:44:41;;;;;;;16.82;10.75;;;;;;;8.10;73.77;100036.37;1682458;82;21524;-59
2021/10/17 06:47:08;;;;;;;15.75;9.95;;;;;;;8.11;74.11;100037.22;1722123;81;22152;-60
2021/10/17 06:49:37;;;;;;;15.60;10.63;;;;;;;8.26;74.01;100034.19;1681919;82;22028;-59
2021/10/17 06:52:05;;;;;;;13.83;10.38;;;;;;;8.37;73.82;100036.06;1718908;82;21438;-59
2021/10/17 06:54:33;;;;;;;17.07;10.75;;;;;;;8.46;73.54;100034.14;1721366;81;21564;-58
2021/10/17 06:56:59;;;;;;;18.87;10.90;;;;;;;8.38;72.56;100033.86;1721515;81;22482;-59
2021/10/17 06:59:26;;;;;;;17.52;10.85;;;;;;;8.41;73.06;100038.14;1725124;81;22020;-58
2021/10/17 07:01:53;;;;;;;17.92;10.28;;;;;;;8.45;72.89;100033.72;1720511;81;21528;-59
2021/10/17 07:04:20;;;;;;;20.62;10.58;;;;;;;8.43;72.66;100036.38;1728858;82;20996;-58
2021/10/17 07:06:48;;;;;;;16.70;10.80;;;;;;;8.53;72.38;100034.34;1715963;81;21526;-58
2021/10/17 07:09:16;;;;;;;19.48;11.22;;;;;;;8.58;72.42;100034.63;1728194;81;21535;-58
2021/10/17 07:11:44;;;;;;;16.37;11.40;;;;;;;8.56;72.24;100037.75;1685617;83;21617;-57
2021/10/17 07:14:15;;;;;;;19.25;11.40;;;;;;;8.60;72.62;100033.73;1711736;81;21495;-59
2021/10/17 07:16:44;;;;;;;16.37;11.60;;;;;;;8.61;72.29;100031.51;1716864;82;21480;-58
2021/10/17 07:19:11;;;;;;;15.87;10.17;;;;;;;8.63;72.26;100042.38;1723464;80;21467;-59
2021/10/17 07:21:39;;;;;;;16.73;10.05;;;;;;;8.72;72.13;100042.12;1725318;81;21004;-58
2021/10/17 07:24:06;;;;;;;15.25;9.80;;;;;;;8.86;71.62;100041.70;1725050;81;21968;-59
2021/10/17 07:26:33;;;;;;;16.47;9.87;;;;;;;8.93;71.36;100044.56;1726210;82;21136;-59
2021/10/17 07:29:00;;;;;;;21.93;11.10;;;;;;;8.85;70.89;100044.37;1723180;80;21492;-61
2021/10/17 07:31:26;;;;;;;16.52;11.75;;;;;;;8.88;71.34;100037.27;1718472;81;21586;-56
2021/10/17 07:34:01;;;;;;;21.77;12.15;;;;;;;8.92;71.15;100041.52;1720315;81;21468;-58
2021/10/17 07:36:41;;;;;;;16.93;10.93;;;;;;;8.98;71.16;100043.09;1721687;80;21749;-57
2021/10/17 07:39:15;;;;;;;16.15;10.25;;;;;;;9.04;70.65;100043.37;1695974;82;20982;-56
2021/10/17 07:41:50;;;;;;;14.75;10.03;;;;;;;9.16;70.58;100043.86;1694617;83;21501;-60
2021/10/17 07:44:17;;;;;;;16.65;11.12;;;;;;;9.30;70.33;100043.88;1708303;83;21472;-58
2021/10/17 07:47:04;;;;;;;14.95;10.13;;;;;;;9.30;69.59;100046.05;1664751;85;21540;-57
2021/10/17 07:49:33;;;;;;;17.77;10.38;;;;;;;9.35;69.83;100048.08;1642197;86;21896;-57
2021/10/17 07:52:01;;;;;;;20.17;11.08;;;;;;;9.41;69.66;100049.66;1697016;82;21557;-58
2021/10/17 07:54:28;;;;;;;17.27;10.93;;;;;;;9.43;69.30;100043.90;1660066;83;21475;-58
2021/10/17 07:56:55;;;;;;;17.62;10.32;;;;;;;9.46;68.99;100049.53;1655023;84;21523;-58
2021/10/17 07:59:24;;;;;;;17.82;9.83;;;;;;;9.42;69.04;100050.50;1644368;84;21583;-58
2021/10/17 08:01:51;;;;;;;17.87;10.10;;;;;;;9.51;69.03;100052.41;1643014;86;21809;-58
2021/10/17 08:04:26;;;;;;;19.75;9.73;;;;;;;9.70;68.66;100047.85;1645990;85;21641;-58
2021/10/17 08:07:03;;;;;;;20.92;9.48;;;;;;;9.80;68.25;100045.34;1652348;84;21562;-58
2021/10/17 08:09:31;;;;;;;16.85;10.03;;;;;;;9.85;68.58;100046.49;1648401;84;21058;-57
2021/10/17 08:11:58;;;;;;;;;;;;;;;9.90;67.65;100047.20;1652244;84;21617;-58
2021/10/17 08:14:25;;;;;;;14.95;10.05;;;;;;;9.82;66.13;100042.67;1654873;84;22198;-57
2021/10/17 08:16:54;;;;;;;14.80;10.48;;;;;;;9.88;67.35;100045.94;1650586;84;21583;-58
2021/10/17 08:19:22;;;;;;;18.02;10.20;;;;;;;9.98;67.57;100043.85;1653416;84;21662;-57
2021/10/17 08:21:49;;;;;;;17.00;10.33;;;;;;;10.10;66.17;100042.59;1650821;84;21644;-57
2021/10/17 08:24:16;;;;;;;14.98;9.55;;;;;;;10.17;66.23;100037.97;1696237;82;20971;-61
2021/10/17 08:26:43;;;;;;;12.57;8.83;;;;;;;10.28;65.73;100040.65;1696048;82;21945;-59
2021/10/17 08:29:17;;;;;;;14.20;7.55;;;;;;;10.45;65.96;100032.63;1693862;82;21668;-59
2021/10/17 08:31:44;;;;;;;16.30;8.30;;;;;;;10.68;65.26;100035.30;1695640;82;21483;-59
2021/10/17 08:34:12;;;;;;;13.68;7.55;;;;;;;10.70;63.90;100030.83;1661433;84;27278;-58
2021/10/17 08:36:39;;;;;;;13.62;8.28;;;;;;;10.76;63.28;100036.78;1646539;86;21700;-58
2021/10/17 08:39:07;;;;;;;16.25;8.08;;;;;;;10.82;62.89;100033.45;1697967;83;21610;-58
2021/10/17 08:41:39;;;;;;;13.98;7.60;;;;;;;10.90;63.43;100034.47;1695117;83;21502;-59
2021/10/17 08:44:07;;;;;;;12.88;6.97;;;;;;;11.07;62.81;100029.41;1695777;83;21009;-59
2021/10/17 08:46:36;;;;;;;15.80;7.42;;;;;;;11.19;62.20;100030.73;1706521;81;21524;-58
2021/10/17 08:49:05;;;;;;;10.03;6.17;;;;;;;11.25;61.01;100026.53;1676701;83;21578;-58
2021/10/17 08:51:33;;;;;;;12.73;6.37;;;;;;;11.34;59.94;100036.30;1703994;82;21710;-57
2021/10/17 08:54:01;;;;;;;9.48;6.60;;;;;;;11.39;59.71;100037.83;1706428;82;21562;-57
2021/10/17 08:56:30;;;;;;;9.90;6.30;;;;;;;11.44;59.35;100029.29;1707761;82;21549;-59
2021/10/17 08:58:58;;;;;;;10.13;5.60;;;;;;;11.54;59.52;100035.50;1704406;82;21498;-58
2021/10/17 09:01:37;;;;;;;7.92;4.83;;;;;;;11.61;57.36;100040.45;1696363;82;21443;-57
2021/10/17 09:04:06;;;;;;;7.95;4.30;;;;;;;11.61;57.36;100040.45;1706985;81;21494;-59
2021/10/17 09:06:37;;;;;;;7.70;4.62;;;;;;;11.57;55.24;100038.02;1708663;82;21428;-59
2021/10/17 09:09:13;;;;;;;11.12;6.28;;;;;;;11.65;56.11;100041.20;1708238;81;21594;-59
2021/10/17 09:11:50;;;;;;;9.25;5.85;;;;;;;11.77;56.32;100033.23;1703932;81;21590;-59
2021/10/17 09:14:19;;;;;;;10.63;5.17;;;;;;;11.90;54.87;100029.67;1709353;81;21672;-58
2021/10/17 09:16:49;;;;;;;9.60;4.67;;;;;;;11.94;54.28;100029.93;1703721;81;21935;-59
2021/10/17 09:19:23;;;;;;;9.03;5.08;;;;;;;12.02;53.71;100026.53;1662506;83;21702;-60
2021/10/17 09:22:03;;;;;;;12.03;4.87;;;;;;;12.08;52.24;100020.52;1656803;84;21465;-59
2021/10/17 09:24:37;;;;;;;6.28;4.25;;;;;;;12.22;52.62;100017.74;1706290;82;21061;-57
2021/10/17 09:27:13;;;;;;;7.30;4.12;;;;;;;12.46;51.78;100014.48;1708903;81;21441;-59
2021/10/17 09:29:48;;;;;;;10.85;4.55;;;;;;;12.53;49.56;100015.09;1706187;81;21774;-60
2021/10/17 09:32:18;;;;;;;15.72;4.60;;;;;;;12.30;50.65;100020.04;1703335;81;21597;-58
2021/10/17 09:34:53;;;;;;;9.55;4.50;;;;;;;12.12;51.91;100019.92;1710952;81;21605;-64
2021/10/17 09:37:20;;;;;;;5.97;4.35;;;;;;;11.92;52.20;100015.50;1703187;81;21610;-59
2021/10/17 09:40:24;;;;;;;10.90;4.55;;;;;;;11.79;53.47;100022.17;1668050;83;21491;-59
2021/10/17 09:43:14;;;;;;;8.75;4.05;;;;;;;11.62;52.21;100014.97;1659328;83;21780;-59
2021/10/17 09:45:43;;;;;;;10.05;4.28;;;;;;;11.56;52.89;100017.39;1665025;83;21098;-59
2021/10/17 09:48:10;;;;;;;9.80;4.60;;;;;;;11.50;52.79;100012.39;1675405;83;21839;-59
2021/10/17 09:50:37;;;;;;;9.68;4.10;;;;;;;11.43;52.83;100010.48;1667054;83;21062;-59
2021/10/17 09:53:08;;;;;;;9.23;4.17;;;;;;;11.40;52.25;100014.54;1664676;83;21617;-59
2021/10/17 09:55:34;;;;;;;11.30;4.60;;;;;;;11.37;52.01;100008.54;1664386;83;21908;-59
2021/10/17 09:58:04;;;;;;;10.72;4.00;;;;;;;11.32;52.17;100004.79;1666447;83;21555;-59
2021/10/17 10:00:33;;;;;;;5.92;4.20;;;;;;;11.34;52.25;100013.91;1662859;83;22207;-59
2021/10/17 10:03:01;;;;;;;9.98;4.75;;;;;;;11.34;52.35;100011.28;1665175;83;21549;-60
2021/10/17 10:05:28;;;;;;;10.20;4.33;;;;;;;11.38;52.84;100015.06;1667149;82;21017;-59
2021/10/17 10:08:01;;;;;;;8.50;4.12;;;;;;;11.39;51.73;100011.97;1664587;83;22174;-59
2021/10/17 10:10:28;;;;;;;10.05;4.28;;;;;;;11.39;51.71;100013.28;1668585;84;21497;-58
2021/10/17 10:12:58;;;;;;;5.12;3.70;;;;;;;11.17;50.80;100014.15;1667356;83;21532;-59
2021/10/17 10:15:25;;;;;;;9.40;4.20;;;;;;;11.21;51.12;100010.47;1671615;84;21845;-58
2021/10/17 10:17:55;;;;;;;8.58;4.40;;;;;;;11.21;50.97;100006.99;1667185;84;21644;-60
2021/10/17 10:20:23;;;;;;;8.90;5.05;;;;;;;11.19;50.79;100012.31;1675195;84;21808;-59
2021/10/17 10:22:51;;;;;;;;;;;;;;;11.26;51.23;100011.59;1669882;84;21571;-59
2021/10/17 10:25:18;;;;;;;14.45;4.65;;;;;;;11.32;48.79;100011.38;1670597;84;20428;-59
2021/10/17 10:27:47;;;;;;;5.62;3.58;;;;;;;11.23;49.90;100006.00;1674131;83;21485;-59
2021/10/17 10:30:29;;;;;;;10.37;4.83;;;;;;;11.20;49.51;100012.69;1673134;83;21576;-58
2021/10/17 10:33:18;;;;;;;12.28;7.50;;;;;;;11.13;49.29;100007.27;1658734;84;21819;-59
2021/10/17 10:36:15;;;;;;;15.95;9.10;;;;;;;11.16;50.16;100003.20;1673393;83;21091;-59
2021/10/17 10:38:55;;;;;;;;;;;;;;;11.16;49.87;100001.89;1673240;83;21586;-58
2021/10/17 10:41:31;;;;;;;14.98;6.67;;;;;;;11.25;50.11;99999.37;1699123;83;20479;-58
2021/10/17 10:44:19;;;;;;;7.25;5.67;;;;;;;11.29;49.37;100001.80;1691254;83;21547;-58
2021/10/17 10:46:46;;;;;;;9.28;4.53;;;;;;;11.35;49.95;99995.43;1702464;82;21817;-58
2021/10/17 10:49:15;;;;;;;8.93;4.03;;;;;;;11.44;49.96;99995.06;1689566;82;21033;-58
2021/10/17 10:51:46;;;;;;;6.37;3.47;;;;;;;11.55;50.25;99993.31;1647556;83;21510;-58
2021/10/17 10:54:31;;;;;;;7.87;4.00;;;;;;;11.49;48.18;99985.67;1699575;83;21519;-58
2021/10/17 10:56:57;;;;;;;7.10;3.87;;;;;;;11.45;48.50;99996.79;1683909;82;21626;-57
2021/10/17 10:59:28;;;;;;;6.83;4.00;;;;;;;11.46;48.73;99989.27;1695949;83;22104;-58
2021/10/17 11:02:18;;;;;;;10.00;4.50;;;;;;;11.49;49.09;99986.99;1645825;85;21192;-58
2021/10/17 11:04:46;;;;;;;8.30;4.17;;;;;;;11.46;48.04;99992.38;1659269;85;21560;-57
2021/10/17 11:07:31;;;;;;;9.33;4.90;;;;;;;11.36;48.55;99997.59;1649471;85;21589;-58
2021/10/17 11:10:27;;;;;;;11.60;3.90;;;;;;;11.26;48.66;99994.48;1700805;82;21621;-58
2021/10/17 11:12:58;;;;;;;8.48;4.33;;;;;;;11.10;48.82;99990.30;1701894;82;22116;-57
2021/10/17 11:15:30;;;;;;;7.80;4.08;;;;;;;11.06;49.14;99985.61;1704448;82;21672;-59
2021/10/17 11:18:10;;;;;;;5.72;3.83;;;;;;;11.07;49.33;99984.68;1687569;82;21586;-59
2021/10/17 11:20:44;;;;;;;7.05;4.25;;;;;;;11.09;49.15;99981.56;1698654;82;21502;-59
2021/10/17 11:23:19;;;;;;;10.25;4.05;;;;;;;11.07;49.09;99979.41;1695958;82;21022;-59
2021/10/17 11:25:56;;;;;;;8.60;3.90;;;;;;;11.14;49.47;99977.88;1699529;82;21786;-59
2021/10/17 11:28:24;;;;;;;6.72;3.70;;;;;;;11.19;47.65;99979.41;1698397;82;21489;-60
2021/10/17 11:31:11;;;;;;;9.35;4.35;;;;;;;11.16;48.35;99980.84;1690758;83;21506;-60
2021/10/17 11:33:43;;;;;;;12.55;5.53;;;;;;;11.17;48.61;99977.73;1697046;83;22066;-60
2021/10/17 11:36:12;;;;;;;10.05;4.25;;;;;;;11.16;48.63;99977.36;1701541;83;21562;-60